Allons, Tennessee
Current Conditions -  °F | °C
As of 11:55 PM on Friday 19 Dec 2014 (Local Time) from KSRB Reporting Station
Few Clouds Few Clouds  
Wind Chill:   Ceiling: Unl
Heat Index:   Visibility: 10mi
Dew Point: -2°   Wind: 5mph
Humidity: 75%   Direction: 350°N
Pressure: 30.18"   Gusts: NA
Location:  36.44°N, 85.34°W
Report Text: KSRB 200555Z AUTO 35004KT 10SM FEW095 02/M02 A3018 RMK
Loading
Personal Weather Stations






























Interactive Weather Map New forecast layout! Learn more

10-Day Weather Forecast

Advertisements
Track Severe Weather on mobile